This is the latest recevied weather packets stored in our database for station/object W7JFO-3. If no packets are shown the sender has not sent any weather packets the latest 10 day(s).
| Time | Temp. | Humidity | Pressure | Rain* | Wind** | Luminosity | Snow |
|---|---|---|---|---|---|---|---|
| 1777244525 | 2.78° C | 57% | 1013 hPa | 0 mm | - | 220 W/m² | - |
| 1777243624 | 2.78° C | 56% | 1012.8 hPa | 0 mm | - | 137 W/m² | - |
| 1777242725 | 2.78° C | 57% | 1012.7 hPa | 0 mm | - | 745 W/m² | - |
| 1777241824 | 2.22° C | 58% | 1012.7 hPa | 0 mm | - | 350 W/m² | - |
| 1777240925 | 2.78° C | 58% | 1012.5 hPa | 0 mm | - | 360 W/m² | - |
| 1777240025 | 2.22° C | 60% | 1012.6 hPa | 0 mm | - | 649 W/m² | - |
| 1777239125 | 1.67° C | 63% | 1012.7 hPa | 0 mm | - | 443 W/m² | - |
| 1777238225 | 1.67° C | 63% | 1012.7 hPa | 0 mm | - | 330 W/m² | - |
| 1777237325 | 1.67° C | 65% | 1012.5 hPa | 0 mm | - | 373 W/m² | - |
| 1777236425 | 1.67° C | 64% | 1012.4 hPa | 0 mm | - | 513 W/m² | - |
| 1777235525 | 1.11° C | 66% | 1012.5 hPa | 0 mm | - | 388 W/m² | - |
| 1777234626 | 1.11° C | 65% | 1012.4 hPa | 0 mm | - | 585 W/m² | - |
| 1777233725 | 1.11° C | 65% | 1012.1 hPa | 0 mm | - | 352 W/m² | - |
| 1777232825 | 0.56° C | 69% | 1012 hPa | 0 mm | - | 378 W/m² | - |
| 1777231925 | 0.56° C | 69% | 1012 hPa | 0 mm | - | 301 W/m² | - |
| 1777231025 | 0.56° C | 69% | 1011.8 hPa | 0 mm | - | 346 W/m² | - |
| 1777230125 | 0.56° C | 70% | 1011.8 hPa | 0 mm | - | 432 W/m² | - |
| 1777229225 | 0.56° C | 72% | 1012 hPa | 0 mm | - | 786 W/m² | - |
| 1777228325 | -0.56° C | 75% | 1011.6 hPa | 0 mm | - | 367 W/m² | - |
| 1777227425 | -0.56° C | 77% | 1011.5 hPa | 0 mm | - | 262 W/m² | - |
| 1777226525 | 0° C | 77% | 1011.4 hPa | 0 mm | - | 339 W/m² | - |
| 1777225625 | 0.56° C | 73% | 1011.4 hPa | 0 mm | - | 708 W/m² | - |
| 1777224725 | -0.56° C | 75% | 1011.2 hPa | 0 mm | - | 475 W/m² | - |
| 1777223825 | -0.56° C | 74% | 1011.3 hPa | 0 mm | - | 236 W/m² | - |
| 1777222925 | 0° C | 72% | 1010.9 hPa | 0 mm | - | 251 W/m² | - |
* Rain latest hour (hover to see other rain measurements)
** Current wind speed in m/s (hover to see current wind gust speed)